首页
METAR-TAF:

METAR-TAF

机场 :

杜蘭戈州, 墨西哥

纬度: 24-08N, 经度: 104-32W, 海拔: 1857米

当前天气观测

该预报发布于56分钟前的16:50 UTC
风速4节,风向北转东北
温度 23°C
湿度 57%
气压 1024 hPa
能見度: 14.5公里
散云层高于1000英尺
多云层高于8000英尺
多云层高于20000英尺

METAR: MMDO 241650Z 03004KT 9SM SCT010 BKN080 BKN200 23/14 A3025 RMK 8/568 ISOL CB TCU HZY

时间: 12:46 (17:46 UTC)

预报

该预报发布于53分钟前的16:53 UTC
预报有效从24日的 18点(UTC)到 25日的 18点(UTC)
风速10节,风向东南
能見度: 10公里
散云层高于2500英尺
多云层高于7000英尺
多云层高于20000英尺
从 24日的 2100点(UTC)
风速12节,风向东南
能見度: 9.7公里
多云层高于2500英尺, 积雨云.
多云层高于7000英尺
阴天层高于20000英尺
霾, 附近有, 雨
短暂存在
从 24日的 21点(UTC)到 25日的 01点(UTC)
能見度: 4.8公里
阴天层高于1500英尺, 积雨云.
雷暴, 大雨
从 25日的 0300点(UTC)
风速5节,风向西北
能見度: 9.7公里
多云层高于1500英尺, 积雨云.
多云层高于8000英尺
附近有, 小雨
成为
从 25日的 06点(UTC)到 25日的 07点(UTC)
能見度: 8.0公里
从 25日的 1000点(UTC)
风速节,风向
能見度: 4.8公里
多云层高于1500英尺
多云层高于7000英尺
短暂存在
从 25日的 11点(UTC)到 25日的 15点(UTC)
能見度: 3.2公里
霾,

TAF: MMDO 241653Z 2418/2518 14010KT P6SM SCT025 BKN070 BKN200 FM242100 14012KT 6SM HZ VC RA BKN025CB BKN070 OVC200 TEMPO 2421/2501 3SM +TSRA OVC015CB FM250300 32005KT 6SM VC -RA BKN015CB BKN080 BECMG 2506/2507 5SM HZ FM251000 00000KT 3SM HZ BKN015 BKN070 TEMPO 2511/2515 2SM HZ

超过4000个机场的气象观测和天气预报(METAR&TAF报告)。

可查询的气象台以黄色和红色小点在地图上表示。

将鼠标移到小点上方,可查看气象台名称。

然后点击查看天气观测和预报。

如需切换地图:点击带黑十字的绿色按钮放大地图;点击带横线的绿色按钮缩小地图;或者点击绿色箭头查看邻近地区的地图。


METAR-TAF: